Time;durP1;ratioP1;P1;durP2;ratioP2;P2;SDS_P1;SDS_P2;PMS_P1;PMS_P2;Temp;Humidity;BMP_temperature;BMP_pressure;BME280_temperature;BME280_humidity;BME280_pressure;Samples;Min_cycle;Max_cycle;Signal;HPM_P1;HPM_P2
2021/01/11 07:58:14;;;;;;;90.03;33.00;;;-5.50;99.90;;;;;;5110928;27;20380;-80
2021/01/11 08:00:39;;;;;;;82.70;31.67;;;-5.60;99.90;;;;;;5110922;28;20020;-81
2021/01/11 08:03:05;;;;;;;75.87;28.27;;;-5.70;99.90;;;;;;5109603;28;20028;-81
2021/01/11 08:05:30;;;;;;;90.23;32.07;;;-5.70;99.90;;;;;;5109445;28;20030;-81
2021/01/11 08:08:04;;;;;;;166.43;75.87;;;-5.70;99.90;;;;;;5111069;28;20031;-81
2021/01/11 08:10:32;;;;;;;98.57;41.30;;;-5.60;99.90;;;;;;5109499;28;20077;-81
2021/01/11 08:13:07;;;;;;;83.70;30.20;;;-5.60;99.90;;;;;;5109338;28;20212;-80
2021/01/11 08:15:33;;;;;;;79.47;30.23;;;-5.50;99.90;;;;;;5109658;28;20540;-81
2021/01/11 08:18:01;;;;;;;138.07;52.27;;;-5.50;99.90;;;;;;5109243;28;20123;-80
2021/01/11 08:20:27;;;;;;;205.37;79.80;;;-5.50;99.90;;;;;;5110563;28;20024;-80
2021/01/11 08:22:53;;;;;;;142.67;54.73;;;-5.40;99.90;;;;;;5110532;28;20073;-81
2021/01/11 08:25:19;;;;;;;76.17;31.80;;;-5.30;99.90;;;;;;5110499;28;20414;-81
2021/01/11 08:27:48;;;;;;;73.93;30.63;;;-5.20;99.90;;;;;;5110403;28;20035;-72
2021/01/11 08:30:16;;;;;;;65.43;27.30;;;-5.10;99.90;;;;;;5110308;28;20028;-79
2021/01/11 08:32:43;;;;;;;63.57;26.03;;;-5.00;99.90;;;;;;5110489;28;20031;-79
2021/01/11 08:35:09;;;;;;;62.07;26.73;;;-5.00;99.90;;;;;;5109195;28;20105;-79
2021/01/11 08:37:36;;;;;;;66.70;30.17;;;-4.90;99.90;;;;;;5110397;28;20058;-79
2021/01/11 08:40:05;;;;;;;56.93;26.00;;;-4.90;99.90;;;;;;5110377;28;20024;-79
2021/01/11 08:42:32;;;;;;;55.60;25.17;;;-4.90;99.90;;;;;;5110096;28;20024;-78
2021/01/11 08:45:27;;;;;;;53.37;23.50;;;-4.80;99.90;;;;;;5110075;28;20028;-78
2021/01/11 08:48:04;;;;;;;45.40;20.20;;;-4.70;99.90;;;;;;5110179;28;20456;-79
2021/01/11 08:50:32;;;;;;;59.17;26.37;;;-4.60;99.90;;;;;;5109961;28;20428;-81
2021/01/11 08:52:58;;;;;;;52.93;24.60;;;-4.60;99.90;;;;;;5110056;28;20038;-81
2021/01/11 08:55:23;;;;;;;48.97;24.03;;;-4.50;99.90;;;;;;5109962;28;20095;-80
2021/01/11 08:58:01;;;;;;;56.43;25.53;;;-4.60;99.90;;;;;;5110025;28;20129;-80
2021/01/11 09:00:27;;;;;;;51.27;23.80;;;-4.50;99.90;;;;;;5109816;28;20377;-81
2021/01/11 09:02:53;;;;;;;58.00;25.60;;;-4.60;99.90;;;;;;5108333;28;20461;-83
2021/01/11 09:05:23;;;;;;;53.27;23.10;;;-4.70;99.90;;;;;;5109767;28;20031;-83
2021/01/11 09:07:52;;;;;;;53.70;23.87;;;-4.60;99.90;;;;;;5106300;28;20439;-84
2021/01/11 09:10:31;;;;;;;49.97;22.83;;;-4.70;99.90;;;;;;5094902;28;20024;-83
2021/01/11 09:13:15;;;;;;;52.13;22.93;;;-4.80;99.90;;;;;;5096053;28;20377;-82
2021/01/11 09:15:41;;;;;;;53.00;22.00;;;-4.80;99.90;;;;;;5096059;28;20500;-83
2021/01/11 09:18:07;;;;;;;50.23;22.50;;;-4.70;99.90;;;;;;5096154;28;20124;-83
2021/01/11 09:20:44;;;;;;;44.97;21.90;;;-4.60;99.90;;;;;;5096144;28;20020;-83
2021/01/11 09:23:10;;;;;;;44.60;21.23;;;-4.60;99.90;;;;;;5096134;28;20043;-83
2021/01/11 09:25:37;;;;;;;45.63;20.83;;;-4.50;99.90;;;;;;5096147;28;20161;-83
2021/01/11 09:28:05;;;;;;;44.97;20.57;;;-4.60;99.90;;;;;;5095702;28;20427;-83
2021/01/11 09:30:31;;;;;;;44.80;20.67;;;-4.70;99.90;;;;;;5095894;28;20028;-83
2021/01/11 09:32:57;;;;;;;48.40;22.63;;;-4.80;99.90;;;;;;5095630;28;20492;-84
2021/01/11 09:35:23;;;;;;;44.93;20.73;;;-4.80;99.90;;;;;;5095538;28;20024;-87
2021/01/11 09:37:49;;;;;;;50.47;21.97;;;-4.80;99.90;;;;;;5095585;28;20039;-88
2021/01/11 09:40:17;;;;;;;53.07;24.33;;;-4.80;99.90;;;;;;5095434;28;20460;-90
2021/01/11 09:42:45;;;;;;;45.57;20.70;;;-4.90;99.90;;;;;;5095537;28;20024;-88
2021/01/11 09:45:11;;;;;;;43.03;20.73;;;-4.90;99.90;;;;;;5095217;28;20058;-88
2021/01/11 09:47:37;;;;;;;46.20;21.70;;;-4.80;99.90;;;;;;5095614;28;20035;-88
2021/01/11 09:50:04;;;;;;;45.17;21.00;;;-4.80;99.90;;;;;;5095023;28;20385;-88
2021/01/11 09:52:30;;;;;;;44.43;21.17;;;-4.70;99.90;;;;;;5094676;28;20027;-88
2021/01/11 09:54:55;;;;;;;44.67;20.00;;;-4.80;99.90;;;;;;5094752;28;20024;-88
2021/01/11 09:57:21;;;;;;;42.93;18.37;;;-4.90;99.90;;;;;;5094352;28;20496;-88
2021/01/11 09:59:46;;;;;;;45.60;21.70;;;-4.90;99.90;;;;;;5094528;28;20021;-88
2021/01/11 10:02:12;;;;;;;51.30;21.10;;;-4.80;99.90;;;;;;5095201;28;20025;-88
2021/01/11 10:04:37;;;;;;;44.07;19.50;;;-4.80;99.90;;;;;;5094836;28;20027;-88
2021/01/11 10:07:06;;;;;;;42.30;19.53;;;-4.80;99.90;;;;;;5095259;28;20073;-88
2021/01/11 10:09:33;;;;;;;39.60;19.77;;;-4.80;99.90;;;;;;5094838;28;20024;-88
2021/01/11 10:12:01;;;;;;;36.33;17.53;;;-4.80;99.90;;;;;;5094905;28;20027;-89
2021/01/11 10:14:27;;;;;;;43.70;20.60;;;-5.00;99.90;;;;;;5093565;28;20042;-89
2021/01/11 10:16:53;;;;;;;38.03;18.27;;;-5.00;99.90;;;;;;5093326;28;20556;-89
2021/01/11 10:19:22;;;;;;;39.57;18.77;;;-4.90;99.90;;;;;;5093451;28;20080;-88
2021/01/11 10:21:47;;;;;;;39.60;19.93;;;-4.90;99.90;;;;;;5094697;28;20020;-89
2021/01/11 10:24:15;;;;;;;37.50;18.13;;;-5.00;99.90;;;;;;5096011;28;20103;-88
2021/01/11 10:26:42;;;;;;;40.43;19.70;;;-5.10;99.90;;;;;;5096420;28;20031;-89
2021/01/11 10:29:08;;;;;;;37.60;19.17;;;-4.90;99.90;;;;;;5095383;28;20461;-88
2021/01/11 10:31:34;;;;;;;39.77;20.53;;;-4.80;99.90;;;;;;5093005;28;20427;-89
2021/01/11 10:34:00;;;;;;;40.40;19.50;;;-4.70;99.90;;;;;;5094059;28;20073;-88
2021/01/11 10:36:26;;;;;;;45.40;19.63;;;-4.70;99.90;;;;;;5094256;28;20039;-88
2021/01/11 10:38:51;;;;;;;41.37;19.47;;;-4.60;99.90;;;;;;5094230;28;20507;-90
2021/01/11 10:41:19;;;;;;;40.93;18.93;;;-4.50;99.90;;;;;;5094333;28;20028;-89
2021/01/11 10:43:46;;;;;;;41.60;20.17;;;-4.50;99.90;;;;;;5094085;28;20039;-86
2021/01/11 10:46:12;;;;;;;47.27;17.90;;;-4.60;99.90;;;;;;5094177;28;20411;-87
2021/01/11 10:48:40;;;;;;;39.33;18.30;;;-4.60;99.90;;;;;;5094178;28;20024;-88
2021/01/11 10:51:10;;;;;;;38.83;17.50;;;-4.50;99.90;;;;;;5094220;28;20035;-87
2021/01/11 10:53:37;;;;;;;38.13;19.23;;;-4.60;99.90;;;;;;5094182;28;20085;-88
2021/01/11 10:56:02;;;;;;;36.50;17.10;;;-4.60;99.90;;;;;;5093828;28;20439;-89
2021/01/11 10:58:28;;;;;;;36.73;16.33;;;-4.50;99.90;;;;;;5093236;28;20103;-88
2021/01/11 11:00:53;;;;;;;32.93;15.57;;;-4.50;99.90;;;;;;5094350;28;20550;-89
2021/01/11 11:03:19;;;;;;;30.83;15.67;;;-4.50;99.90;;;;;;5094177;28;20020;-83
2021/01/11 11:05:44;;;;;;;34.83;15.53;;;-4.50;99.90;;;;;;5094217;28;20020;-87
2021/01/11 11:08:10;;;;;;;32.03;16.37;;;-4.50;99.90;;;;;;5093860;28;20028;-88
2021/01/11 11:10:35;;;;;;;34.80;16.33;;;-4.60;99.90;;;;;;5094009;28;20031;-88
2021/01/11 11:13:04;;;;;;;33.23;16.93;;;-4.60;99.90;;;;;;5093865;28;20107;-88
2021/01/11 11:15:30;;;;;;;37.03;17.27;;;-4.70;99.90;;;;;;5093700;28;20045;-88
2021/01/11 11:17:55;;;;;;;36.70;18.43;;;-4.70;99.90;;;;;;5093812;28;20106;-88
2021/01/11 11:20:21;;;;;;;39.10;18.10;;;-4.80;99.90;;;;;;5093703;28;20031;-89
2021/01/11 11:22:46;;;;;;;40.27;18.43;;;-4.80;99.90;;;;;;5093741;28;20020;-88
2021/01/11 11:25:12;;;;;;;37.60;17.23;;;-4.80;99.90;;;;;;5093416;28;20467;-88
2021/01/11 11:27:38;;;;;;;38.83;18.03;;;-4.80;99.90;;;;;;5093435;28;20425;-88
2021/01/11 11:30:05;;;;;;;38.83;17.03;;;-4.90;99.90;;;;;;5092121;28;20020;-88
2021/01/11 11:32:34;;;;;;;34.67;16.63;;;-5.00;99.90;;;;;;5093139;28;20804;-88
2021/01/11 11:35:00;;;;;;;32.37;17.20;;;-5.00;99.90;;;;;;5093498;28;20477;-88
2021/01/11 11:37:25;;;;;;;32.53;16.00;;;-5.00;99.90;;;;;;5093360;28;20059;-88
2021/01/11 11:39:51;;;;;;;36.70;16.93;;;-4.90;99.90;;;;;;5092085;28;20044;-87
2021/01/11 11:42:16;;;;;;;38.03;17.63;;;-5.00;99.90;;;;;;5092282;28;20020;-88
2021/01/11 11:44:42;;;;;;;40.40;18.63;;;-5.00;99.90;;;;;;5091955;28;20127;-88
2021/01/11 11:47:07;;;;;;;40.00;19.37;;;-5.10;99.90;;;;;;5093528;28;20032;-88
2021/01/11 11:49:33;;;;;;;57.77;24.70;;;-5.00;99.90;;;;;;5091983;28;20020;-88
2021/01/11 11:51:58;;;;;;;40.10;19.13;;;-5.00;99.90;;;;;;5093105;28;20374;-88
2021/01/11 11:54:24;;;;;;;49.10;22.40;;;-4.90;99.90;;;;;;5093552;28;20024;-89
2021/01/11 11:56:49;;;;;;;45.07;19.80;;;-4.90;99.90;;;;;;5092813;28;20074;-88
2021/01/11 11:59:15;;;;;;;38.60;18.63;;;-4.80;99.90;;;;;;5093028;28;20104;-88
2021/01/11 12:01:41;;;;;;;42.17;20.27;;;-4.70;99.90;;;;;;5093522;28;20024;-88
2021/01/11 12:04:08;;;;;;;44.57;21.37;;;-4.60;99.90;;;;;;5092892;28;20020;-88
2021/01/11 12:06:44;;;;;;;39.93;19.47;;;-4.50;99.90;;;;;;5093441;28;20016;-88
2021/01/11 12:09:11;;;;;;;46.83;22.50;;;-4.50;99.90;;;;;;5093005;28;20071;-88
2021/01/11 12:11:51;;;;;;;45.53;22.03;;;-4.60;99.90;;;;;;5091583;28;20020;-88
2021/01/11 12:14:17;;;;;;;45.67;21.23;;;-4.70;99.90;;;;;;5093141;28;20510;-87
2021/01/11 12:16:47;;;;;;;41.47;20.70;;;-4.60;99.90;;;;;;5091612;28;20028;-89
2021/01/11 12:19:13;;;;;;;42.63;21.43;;;-4.60;99.90;;;;;;5091769;28;20372;-89
2021/01/11 12:21:39;;;;;;;47.23;20.93;;;-4.60;99.90;;;;;;5093030;28;20021;-90
2021/01/11 12:24:06;;;;;;;46.37;21.43;;;-4.70;99.90;;;;;;5092985;28;20024;-89
2021/01/11 12:26:45;;;;;;;43.43;21.37;;;-4.70;99.90;;;;;;5091731;28;20350;-89
2021/01/11 12:29:11;;;;;;;44.53;20.80;;;-4.80;99.90;;;;;;5092508;28;20028;-89
2021/01/11 12:31:37;;;;;;;46.80;20.60;;;-4.80;99.90;;;;;;5091571;28;20411;-90
2021/01/11 12:34:04;;;;;;;50.10;22.43;;;-4.70;99.90;;;;;;5091214;28;20032;-89
2021/01/11 12:36:31;;;;;;;45.13;23.13;;;-4.50;99.90;;;;;;5092645;28;20020;-89
2021/01/11 12:38:59;;;;;;;43.50;22.40;;;-4.50;99.90;;;;;;5091649;28;20047;-90
2021/01/11 12:41:25;;;;;;;50.23;21.93;;;-4.40;99.90;;;;;;5092637;28;20035;-89
2021/01/11 12:43:51;;;;;;;78.20;32.97;;;-4.50;99.90;;;;;;5093160;28;20016;-89
2021/01/11 12:46:20;;;;;;;46.17;21.73;;;-4.50;99.90;;;;;;5096535;28;20392;-89
2021/01/11 12:48:46;;;;;;;44.97;22.03;;;-4.40;99.90;;;;;;5094936;28;20050;-89
2021/01/11 12:51:12;;;;;;;48.80;20.63;;;-4.40;99.90;;;;;;5095281;28;20024;-89
2021/01/11 12:53:38;;;;;;;54.17;23.63;;;-4.40;99.90;;;;;;5095114;28;20420;-89
2021/01/11 12:56:15;;;;;;;53.37;22.90;;;-4.50;99.90;;;;;;5096008;28;20028;-89
2021/01/11 12:58:41;;;;;;;44.63;21.00;;;-4.40;99.90;;;;;;5095065;28;20111;-89
2021/01/11 13:01:07;;;;;;;41.20;20.13;;;-4.50;99.90;;;;;;5094786;28;20426;-89
2021/01/11 13:03:32;;;;;;;45.57;21.17;;;-4.40;99.90;;;;;;5096343;28;20369;-89
2021/01/11 13:05:58;;;;;;;51.93;21.07;;;-4.30;99.90;;;;;;5096110;28;20047;-89
2021/01/11 13:08:24;;;;;;;48.03;22.40;;;-4.30;99.90;;;;;;5096000;28;20016;-89
2021/01/11 13:10:49;;;;;;;47.27;22.97;;;-4.30;99.90;;;;;;5094724;28;20186;-89
2021/01/11 13:13:15;;;;;;;45.23;21.30;;;-4.30;99.90;;;;;;5094624;28;20197;-89
2021/01/11 13:15:40;;;;;;;46.53;21.13;;;-4.20;99.90;;;;;;5094591;28;20024;-89
2021/01/11 13:18:06;;;;;;;46.70;21.73;;;-4.30;99.90;;;;;;5095304;28;20362;-89
2021/01/11 13:20:31;;;;;;;46.37;21.93;;;-4.30;99.90;;;;;;5094485;28;20046;-89
2021/01/11 13:22:57;;;;;;;43.80;19.40;;;-4.30;99.90;;;;;;5096012;28;20450;-89
2021/01/11 13:25:27;;;;;;;46.77;21.73;;;-4.50;99.90;;;;;;5094424;28;20016;-89
2021/01/11 13:27:53;;;;;;;46.30;23.43;;;-4.60;99.90;;;;;;5095929;28;20024;-89
2021/01/11 13:30:19;;;;;;;46.57;21.20;;;-4.70;99.90;;;;;;5094489;28;20096;-89
2021/01/11 13:32:45;;;;;;;46.63;21.93;;;-4.80;99.90;;;;;;5094351;28;20028;-89
2021/01/11 13:35:11;;;;;;;45.23;21.20;;;-4.80;99.90;;;;;;5094593;28;20031;-89
2021/01/11 13:37:37;;;;;;;48.37;21.73;;;-4.80;99.90;;;;;;5095332;28;20020;-89
2021/01/11 13:40:04;;;;;;;49.60;22.07;;;-4.80;99.90;;;;;;5095612;28;20035;-89
2021/01/11 13:42:34;;;;;;;49.73;23.60;;;-4.80;99.90;;;;;;5094175;28;20385;-89
2021/01/11 13:45:00;;;;;;;45.27;22.83;;;-4.80;99.90;;;;;;5095204;28;20366;-89
2021/01/11 13:47:25;;;;;;;46.50;21.80;;;-4.70;99.90;;;;;;5095267;28;20032;-89
2021/01/11 13:49:52;;;;;;;48.90;22.27;;;-4.70;99.90;;;;;;5095358;28;20030;-89
2021/01/11 13:52:18;;;;;;;45.57;22.30;;;-4.60;99.90;;;;;;5093922;28;20028;-89
2021/01/11 13:54:46;;;;;;;52.60;23.53;;;-4.60;99.90;;;;;;5095144;28;20393;-89
2021/01/11 13:57:11;;;;;;;45.00;22.70;;;-4.50;99.90;;;;;;5094940;28;20064;-89
2021/01/11 13:59:37;;;;;;;51.07;24.63;;;-4.50;99.90;;;;;;5095393;28;20440;-89
2021/01/11 14:02:04;;;;;;;48.97;24.47;;;-4.60;99.90;;;;;;5094027;28;20107;-89
2021/01/11 14:04:30;;;;;;;48.73;24.70;;;-4.60;99.90;;;;;;5093788;28;20016;-89
2021/01/11 14:06:56;;;;;;;55.90;23.67;;;-4.60;99.90;;;;;;5095318;28;20433;-87
2021/01/11 14:09:21;;;;;;;50.93;23.57;;;-4.50;99.90;;;;;;5093805;28;20416;-89
2021/01/11 14:11:47;;;;;;;48.37;22.97;;;-4.60;99.90;;;;;;5093929;28;20122;-89
2021/01/11 14:14:13;;;;;;;52.53;23.30;;;-4.60;99.90;;;;;;5094935;28;20059;-89
2021/01/11 14:16:39;;;;;;;49.97;24.77;;;-4.70;99.90;;;;;;5093612;28;20020;-89
2021/01/11 14:19:04;;;;;;;46.80;23.30;;;-4.70;99.90;;;;;;5094951;28;20103;-89
2021/01/11 14:21:30;;;;;;;56.57;24.50;;;-4.80;99.90;;;;;;5093598;28;20072;-89
2021/01/11 14:24:02;;;;;;;49.87;23.93;;;-4.80;99.90;;;;;;5094668;28;20032;-89
2021/01/11 14:26:35;;;;;;;49.80;24.37;;;-4.70;99.90;;;;;;5093427;28;20020;-89
2021/01/11 14:29:02;;;;;;;50.67;23.80;;;-4.70;99.90;;;;;;5094711;28;20165;-90
2021/01/11 14:31:28;;;;;;;49.27;22.30;;;-4.70;99.90;;;;;;5094848;28;20414;-89
2021/01/11 14:33:54;;;;;;;52.63;22.87;;;-4.70;99.90;;;;;;5094529;28;20028;-89
2021/01/11 14:36:20;;;;;;;47.33;21.70;;;-4.70;99.90;;;;;;5094402;28;20031;-90
2021/01/11 14:38:46;;;;;;;48.77;23.60;;;-4.80;99.90;;;;;;5093240;28;20485;-89
2021/01/11 14:41:13;;;;;;;80.23;35.83;;;-4.80;99.90;;;;;;5094384;28;20036;-90
2021/01/11 14:43:39;;;;;;;54.13;25.63;;;-4.80;99.90;;;;;;5094366;28;20384;-90
2021/01/11 14:46:05;;;;;;;54.00;24.40;;;-4.90;99.90;;;;;;5094387;28;20066;-91
2021/01/11 14:48:37;;;;;;;51.70;23.70;;;-4.90;99.90;;;;;;5095427;28;20407;-91
2021/01/11 14:51:09;;;;;;;48.00;23.90;;;-4.80;99.90;;;;;;5094450;28;20111;-89
2021/01/11 14:53:35;;;;;;;54.30;23.40;;;-4.80;99.90;;;;;;5089742;28;20081;-89
2021/01/11 14:56:08;;;;;;;50.37;24.57;;;-4.80;99.90;;;;;;5093601;28;20035;-89
2021/01/11 14:58:33;;;;;;;54.23;23.43;;;-4.80;99.90;;;;;;5094174;28;20024;-89
2021/01/11 15:01:00;;;;;;;47.80;23.37;;;-4.80;99.90;;;;;;5093873;28;20035;-90
2021/01/11 15:03:25;;;;;;;50.63;24.93;;;-4.80;99.90;;;;;;5093979;28;20020;-87
2021/01/11 15:05:51;;;;;;;50.70;22.53;;;-4.80;99.90;;;;;;5092066;28;20383;-91
2021/01/11 15:08:16;;;;;;;49.90;23.33;;;-4.80;99.90;;;;;;5092028;28;20032;-90
2021/01/11 15:10:42;;;;;;;50.90;23.27;;;-4.90;99.90;;;;;;5093085;28;20039;-91
2021/01/11 15:13:07;;;;;;;50.20;23.83;;;-5.00;99.90;;;;;;5093035;28;20039;-90
2021/01/11 15:15:33;;;;;;;44.93;22.17;;;-5.00;99.90;;;;;;5093002;28;20074;-91
2021/01/11 15:17:58;;;;;;;52.33;24.07;;;-5.10;99.90;;;;;;5092914;28;20073;-90
2021/01/11 15:20:25;;;;;;;51.10;22.87;;;-5.10;99.90;;;;;;5092856;28;20094;-90
2021/01/11 15:22:50;;;;;;;56.97;23.63;;;-5.10;99.90;;;;;;5091833;28;20024;-91
2021/01/11 15:25:16;;;;;;;49.20;24.23;;;-5.20;99.90;;;;;;5092882;28;20042;-91
2021/01/11 15:27:42;;;;;;;54.10;24.10;;;-5.20;99.90;;;;;;5091726;28;20024;-90
2021/01/11 15:30:08;;;;;;;50.50;23.33;;;-5.20;99.90;;;;;;5092633;28;20047;-90
2021/01/11 15:32:36;;;;;;;54.93;23.13;;;-5.30;99.90;;;;;;5092765;28;20034;-90
2021/01/11 15:35:02;;;;;;;49.90;22.37;;;-5.30;99.90;;;;;;5092680;28;20024;-90
2021/01/11 15:37:27;;;;;;;58.07;24.80;;;-5.30;99.90;;;;;;5092798;28;20024;-91
2021/01/11 15:39:53;;;;;;;50.00;23.80;;;-5.30;99.90;;;;;;5092728;28;20077;-90
2021/01/11 15:42:18;;;;;;;62.23;27.50;;;-5.20;99.90;;;;;;5092601;28;20042;-90
2021/01/11 15:44:44;;;;;;;57.23;24.30;;;-5.30;99.90;;;;;;5091303;28;20022;-91
2021/01/11 15:47:12;;;;;;;53.93;23.37;;;-5.30;99.90;;;;;;5091196;28;20153;-91
2021/01/11 15:49:38;;;;;;;51.43;23.50;;;-5.30;99.90;;;;;;5091954;28;20102;-90
2021/01/11 15:52:04;;;;;;;47.80;21.67;;;-5.30;99.90;;;;;;5091153;28;20149;-91
2021/01/11 15:54:30;;;;;;;41.00;20.20;;;-5.30;99.90;;;;;;5089325;28;20077;-91
2021/01/11 15:56:55;;;;;;;41.10;19.63;;;-5.40;99.90;;;;;;5090850;28;20056;-90
2021/01/11 15:59:21;;;;;;;44.53;19.97;;;-5.50;99.90;;;;;;5089368;28;20362;-91
2021/01/11 16:01:46;;;;;;;43.43;21.30;;;-5.50;99.90;;;;;;5089351;28;20016;-90
2021/01/11 16:04:12;;;;;;;48.67;21.17;;;-5.40;99.90;;;;;;5092563;28;20020;-91
2021/01/11 16:06:44;;;;;;;50.40;23.73;;;-5.50;99.90;;;;;;5092356;28;20079;-91
2021/01/11 16:09:11;;;;;;;46.13;20.43;;;-5.50;99.90;;;;;;5092257;28;20111;-91
2021/01/11 16:11:39;;;;;;;51.10;21.63;;;-5.50;99.90;;;;;;5090809;28;20039;-91
2021/01/11 16:14:05;;;;;;;46.63;20.13;;;-5.50;99.90;;;;;;5092360;28;20439;-91
2021/01/11 16:16:31;;;;;;;41.77;20.47;;;-5.60;99.90;;;;;;5090745;28;20106;-90
2021/01/11 16:18:57;;;;;;;43.83;22.23;;;-5.60;99.90;;;;;;5092777;28;20115;-91
2021/01/11 16:21:23;;;;;;;46.67;20.23;;;-5.70;99.90;;;;;;5095183;28;20460;-90
2021/01/11 16:23:49;;;;;;;45.17;21.43;;;-5.70;99.90;;;;;;5096304;28;20020;-91
2021/01/11 16:26:22;;;;;;;50.23;21.93;;;-5.70;99.90;;;;;;5096477;28;20028;-91
2021/01/11 16:28:48;;;;;;;43.43;20.33;;;-5.70;99.90;;;;;;5095893;28;20054;-91
2021/01/11 16:31:30;;;;;;;46.23;21.57;;;-5.80;99.90;;;;;;5096534;28;20024;-90
2021/01/11 16:33:58;;;;;;;44.13;20.67;;;-5.80;99.90;;;;;;5095866;28;20020;-91
2021/01/11 16:36:24;;;;;;;44.63;23.27;;;-5.80;99.90;;;;;;5095447;28;20032;-90
2021/01/11 16:38:50;;;;;;;40.73;20.10;;;-5.80;99.90;;;;;;5097088;28;20048;-91
2021/01/11 16:41:23;;;;;;;44.77;20.33;;;-5.80;99.90;;;;;;5095990;28;20426;-91
2021/01/11 16:43:50;;;;;;;50.13;22.60;;;-5.80;99.90;;;;;;5094194;28;20355;-91
2021/01/11 16:46:20;;;;;;;44.10;22.07;;;-5.80;99.90;;;;;;5094548;28;20032;-91
2021/01/11 16:48:46;;;;;;;44.43;21.37;;;-5.80;99.90;;;;;;5092951;28;20380;-91
2021/01/11 16:51:14;;;;;;;41.97;21.00;;;-5.80;99.90;;;;;;5094602;28;20058;-91
2021/01/11 16:53:40;;;;;;;45.50;22.17;;;-5.80;99.90;;;;;;5094821;28;20024;-91
2021/01/11 16:56:06;;;;;;;42.90;20.50;;;-5.90;99.90;;;;;;5095243;28;20028;-91
2021/01/11 16:58:31;;;;;;;52.77;23.47;;;-5.80;99.90;;;;;;5094736;28;20020;-91
2021/01/11 17:00:57;;;;;;;48.63;21.47;;;-5.80;99.90;;;;;;5093937;28;20039;-91
2021/01/11 17:03:22;;;;;;;48.30;22.37;;;-5.80;99.90;;;;;;5095544;28;20103;-91
2021/01/11 17:05:48;;;;;;;49.07;21.80;;;-5.80;99.90;;;;;;5095416;28;20028;-91
2021/01/11 17:08:14;;;;;;;49.33;23.30;;;-5.80;99.90;;;;;;5094355;28;20035;-90
2021/01/11 17:10:42;;;;;;;49.67;22.83;;;-5.80;99.90;;;;;;5095281;28;20024;-91
2021/01/11 17:13:07;;;;;;;47.53;22.27;;;-5.80;99.90;;;;;;5094164;28;20467;-91
2021/01/11 17:15:33;;;;;;;52.17;23.77;;;-5.80;99.90;;;;;;5095271;28;20028;-91
2021/01/11 17:17:58;;;;;;;49.20;23.03;;;-5.80;99.90;;;;;;5095658;28;20119;-90
2021/01/11 17:20:24;;;;;;;45.90;22.40;;;-5.80;99.90;;;;;;5095262;28;20024;-91
2021/01/11 17:22:49;;;;;;;51.47;23.97;;;-5.80;99.90;;;;;;5094012;28;20035;-91
2021/01/11 17:25:16;;;;;;;52.80;22.40;;;-5.80;99.90;;;;;;5095252;28;20529;-90
2021/01/11 17:27:42;;;;;;;53.70;23.60;;;-5.80;99.90;;;;;;5093677;28;20026;-91
2021/01/11 17:30:09;;;;;;;49.00;23.30;;;-5.80;99.90;;;;;;5093398;28;20028;-90
2021/01/11 17:32:38;;;;;;;56.87;24.70;;;-5.90;99.90;;;;;;5094918;28;20024;-90
2021/01/11 17:35:06;;;;;;;49.87;23.57;;;-5.90;99.90;;;;;;5093965;28;20028;-90
2021/01/11 17:37:31;;;;;;;53.37;24.30;;;-5.90;99.90;;;;;;5094788;28;20201;-91
2021/01/11 17:39:57;;;;;;;52.67;24.40;;;-6.00;99.90;;;;;;5093614;28;20478;-90
2021/01/11 17:42:22;;;;;;;53.13;23.40;;;-6.00;99.90;;;;;;5094845;28;20031;-89
2021/01/11 17:44:48;;;;;;;51.40;23.23;;;-6.00;99.90;;;;;;5094809;28;20111;-90
2021/01/11 17:47:14;;;;;;;50.77;23.57;;;-6.00;99.90;;;;;;5094749;28;20023;-90
2021/01/11 17:49:39;;;;;;;52.20;22.17;;;-6.10;99.90;;;;;;5093420;28;20126;-91
2021/01/11 17:52:05;;;;;;;49.90;24.67;;;-6.10;99.90;;;;;;5093034;28;20193;-90
2021/01/11 17:54:31;;;;;;;53.40;22.53;;;-6.10;99.90;;;;;;5093394;28;20027;-90
2021/01/11 17:56:57;;;;;;;45.73;21.43;;;-6.10;99.90;;;;;;5094077;28;20508;-91
2021/01/11 17:59:23;;;;;;;48.77;23.73;;;-6.10;99.90;;;;;;5094593;28;20058;-90
2021/01/11 18:01:48;;;;;;;55.23;24.17;;;-6.00;99.90;;;;;;5094559;28;20128;-91
2021/01/11 18:04:15;;;;;;;63.57;25.70;;;-6.10;99.90;;;;;;5094331;28;20457;-90
2021/01/11 18:06:41;;;;;;;62.10;26.80;;;-6.10;99.90;;;;;;5094199;28;20039;-90
2021/01/11 18:09:07;;;;;;;54.77;23.97;;;-6.10;99.90;;;;;;5094207;28;20024;-90
2021/01/11 18:11:40;;;;;;;59.87;28.17;;;-6.10;99.90;;;;;;5094267;28;20027;-90
2021/01/11 18:14:06;;;;;;;58.83;27.17;;;-6.10;99.90;;;;;;5094140;28;20032;-90
2021/01/11 18:16:32;;;;;;;65.13;29.70;;;-6.00;99.90;;;;;;5092909;28;20035;-90
2021/01/11 18:18:57;;;;;;;71.57;30.90;;;-6.00;99.90;;;;;;5092690;28;20111;-90
2021/01/11 18:21:23;;;;;;;73.47;31.57;;;-6.00;99.90;;;;;;5093946;28;20070;-90
2021/01/11 18:23:49;;;;;;;56.90;24.67;;;-6.00;99.90;;;;;;5093798;28;20354;-90
2021/01/11 18:26:14;;;;;;;55.90;24.77;;;-5.90;99.90;;;;;;5094133;28;20401;-91
2021/01/11 18:28:40;;;;;;;58.20;24.50;;;-6.00;99.90;;;;;;5093902;28;20099;-90
2021/01/11 18:31:06;;;;;;;53.07;25.37;;;-6.00;99.90;;;;;;5092511;28;20477;-90
2021/01/11 18:33:32;;;;;;;56.40;26.27;;;-6.00;99.90;;;;;;5092378;28;20023;-91
2021/01/11 18:35:58;;;;;;;56.27;24.83;;;-6.00;99.90;;;;;;5093645;28;20020;-90
2021/01/11 18:38:23;;;;;;;53.83;23.93;;;-6.00;99.90;;;;;;5093804;28;20400;-90
2021/01/11 18:40:49;;;;;;;54.60;25.77;;;-5.90;99.90;;;;;;5091378;28;20039;-91
2021/01/11 18:43:15;;;;;;;56.00;26.50;;;-5.90;99.90;;;;;;5093859;28;20458;-90
2021/01/11 18:45:44;;;;;;;56.40;25.10;;;-6.00;99.90;;;;;;5093627;28;20016;-90
2021/01/11 18:48:11;;;;;;;54.60;26.53;;;-6.00;99.90;;;;;;5093686;28;20381;-90
2021/01/11 18:50:36;;;;;;;60.97;26.77;;;-6.00;99.90;;;;;;5093373;28;20031;-90
2021/01/11 18:53:02;;;;;;;56.77;24.20;;;-6.00;99.90;;;;;;5093478;28;20107;-90
2021/01/11 18:55:27;;;;;;;56.17;25.13;;;-6.00;99.90;;;;;;5096322;28;20477;-90
2021/01/11 18:57:53;;;;;;;51.87;23.57;;;-6.00;99.90;;;;;;5098931;28;20104;-90
2021/01/11 19:00:19;;;;;;;61.13;24.17;;;-6.00;99.90;;;;;;5099193;28;20024;-90
2021/01/11 19:02:46;;;;;;;50.53;24.03;;;-6.10;99.90;;;;;;5095028;28;20016;-91
2021/01/11 19:05:12;;;;;;;57.57;25.30;;;-6.00;99.90;;;;;;5092817;28;20020;-90
2021/01/11 19:07:38;;;;;;;60.13;27.77;;;-6.00;99.90;;;;;;5093126;28;20031;-90
2021/01/11 19:10:05;;;;;;;53.90;25.43;;;-6.00;99.90;;;;;;5092995;28;20024;-89
2021/01/11 19:12:30;;;;;;;51.97;24.70;;;-5.90;99.90;;;;;;5092955;28;20035;-90
2021/01/11 19:14:58;;;;;;;53.13;25.67;;;-5.90;99.90;;;;;;5093182;28;20024;-91
2021/01/11 19:17:25;;;;;;;56.13;25.10;;;-5.90;99.90;;;;;;5092749;28;20103;-91
2021/01/11 19:19:51;;;;;;;53.80;26.37;;;-5.90;99.90;;;;;;5092981;28;20099;-90
2021/01/11 19:22:17;;;;;;;52.60;24.03;;;-5.90;99.90;;;;;;5092746;28;20027;-90
2021/01/11 19:24:43;;;;;;;54.27;25.03;;;-5.90;99.90;;;;;;5092836;28;20012;-91
2021/01/11 19:27:09;;;;;;;58.23;26.17;;;-5.90;99.90;;;;;;5092895;28;20046;-91
2021/01/11 19:29:35;;;;;;;51.80;23.43;;;-5.90;99.90;;;;;;5091657;28;20032;-90
2021/01/11 19:32:00;;;;;;;62.27;27.43;;;-5.80;99.90;;;;;;5092583;28;20061;-90
2021/01/11 19:34:26;;;;;;;65.27;26.80;;;-5.80;99.90;;;;;;5091628;28;20435;-90
2021/01/11 19:36:51;;;;;;;59.50;26.83;;;-5.80;99.90;;;;;;5092354;28;20052;-90
2021/01/11 19:39:18;;;;;;;56.43;26.43;;;-5.80;99.90;;;;;;5092548;28;20020;-91
2021/01/11 19:41:44;;;;;;;57.43;25.87;;;-5.80;99.90;;;;;;5092544;28;20042;-91
2021/01/11 19:44:11;;;;;;;50.03;24.70;;;-5.80;99.90;;;;;;5092459;28;20098;-90
2021/01/11 19:46:41;;;;;;;53.23;25.43;;;-5.80;99.90;;;;;;5092595;28;20420;-90
2021/01/11 19:49:07;;;;;;;53.43;25.93;;;-5.70;99.90;;;;;;5090895;28;20028;-90
2021/01/11 19:51:33;;;;;;;53.63;25.23;;;-5.70;99.90;;;;;;5092341;28;20032;-90
2021/01/11 19:54:00;;;;;;;54.40;25.57;;;-5.70;99.90;;;;;;5091198;28;20028;-90
2021/01/11 19:56:26;;;;;;;46.97;23.70;;;-5.80;99.90;;;;;;5092086;28;20048;-90
2021/01/11 19:58:52;;;;;;;54.83;24.83;;;-5.80;99.90;;;;;;5091171;28;20024;-90
2021/01/11 20:01:18;;;;;;;54.87;25.30;;;-5.80;99.90;;;;;;5092363;28;20435;-91
2021/01/11 20:03:45;;;;;;;51.77;25.47;;;-5.70;99.90;;;;;;5091004;28;20024;-91
2021/01/11 20:06:15;;;;;;;53.77;24.73;;;-5.70;99.90;;;;;;5092583;28;20043;-90
2021/01/11 20:08:40;;;;;;;62.30;26.70;;;-5.70;99.90;;;;;;5091955;28;20020;-91
2021/01/11 20:11:06;;;;;;;53.17;26.37;;;-5.70;99.90;;;;;;5091082;28;20107;-90
2021/01/11 20:13:32;;;;;;;50.30;23.77;;;-5.70;99.90;;;;;;5092212;28;20020;-91
2021/01/11 20:15:58;;;;;;;57.20;24.40;;;-5.70;99.90;;;;;;5090870;28;20385;-91
2021/01/11 20:18:23;;;;;;;57.90;24.70;;;-5.70;99.90;;;;;;5090724;28;20119;-91
2021/01/11 20:20:49;;;;;;;49.47;23.97;;;-5.70;99.90;;;;;;5090762;28;20020;-91